createdAt,value
2023-01-23T00:00:14.005Z,97237.34
2023-01-23T00:02:42.235Z,97235.88
2023-01-23T00:05:11.066Z,97247.09
2023-01-23T00:07:38.886Z,97241.78
2023-01-23T00:10:07.818Z,97244.25
2023-01-23T00:12:37.064Z,97241.38
2023-01-23T00:15:06.744Z,97246.09
2023-01-23T00:17:34.625Z,97240.56
2023-01-23T00:20:02.414Z,97249.31
2023-01-23T00:22:30.179Z,97260.97
2023-01-23T00:24:57.997Z,97249.53
2023-01-23T00:27:25.815Z,97265.00
2023-01-23T00:29:55.194Z,97264.59
2023-01-23T00:32:23.404Z,97264.19
2023-01-23T00:34:51.369Z,97270.66
2023-01-23T00:37:19.158Z,97268.41
2023-01-23T00:39:47.182Z,97271.69
2023-01-23T00:42:14.931Z,97272.28
2023-01-23T00:44:42.738Z,97271.06
2023-01-23T00:47:11.927Z,97264.31
2023-01-23T00:49:39.844Z,97270.59
2023-01-23T00:52:07.564Z,97266.94
2023-01-23T00:54:35.354Z,97268.56
2023-01-23T00:57:03.186Z,97273.88
2023-01-23T00:59:31.117Z,97269.97
2023-01-23T01:01:59.057Z,97263.22
2023-01-23T01:04:28.228Z,97268.34
2023-01-23T01:06:56.020Z,97282.41
2023-01-23T01:09:24.816Z,97285.25
2023-01-23T01:11:52.741Z,97288.94
2023-01-23T01:14:20.626Z,97280.97
2023-01-23T01:16:48.649Z,97274.44
2023-01-23T01:19:18.085Z,97272.38
2023-01-23T01:21:48.727Z,97274.16
2023-01-23T01:24:16.501Z,97273.34
2023-01-23T01:26:44.238Z,97274.53
2023-01-23T01:29:12.005Z,97273.75
2023-01-23T01:31:39.799Z,97283.16
2023-01-23T01:34:07.686Z,97278.25
2023-01-23T01:36:35.480Z,97275.59
2023-01-23T01:39:04.837Z,97275.59
2023-01-23T01:41:33.241Z,97276.19
2023-01-23T01:44:01.061Z,97275.78
2023-01-23T01:46:30.679Z,97283.56
2023-01-23T01:49:11.657Z,97284.78
2023-01-23T01:51:45.401Z,97283.97
2023-01-23T01:54:22.283Z,97286.44
2023-01-23T01:56:53.452Z,97289.91
2023-01-23T01:59:24.907Z,97293.56
2023-01-23T02:01:58.645Z,97285.59
2023-01-23T02:04:26.554Z,97288.88
2023-01-23T02:06:56.746Z,97291.28
2023-01-23T02:09:27.628Z,97280.28
2023-01-23T02:11:55.567Z,97278.31
2023-01-23T02:14:25.748Z,97278.66
2023-01-23T02:16:56.170Z,97283.94
2023-01-23T02:19:39.021Z,97275.59
2023-01-23T02:22:14.603Z,97266.44
2023-01-23T02:24:53.626Z,97265.63
2023-01-23T02:27:23.569Z,97259.94
2023-01-23T02:29:52.493Z,97260.38
2023-01-23T02:32:24.373Z,97258.34
2023-01-23T02:34:55.847Z,97251.22
2023-01-23T02:37:29.823Z,97242.88
2023-01-23T02:39:58.545Z,97253.31
2023-01-23T02:42:28.534Z,97251.09
2023-01-23T02:44:58.012Z,97257.84
2023-01-23T02:47:25.941Z,97263.91
2023-01-23T02:49:57.181Z,97259.06
2023-01-23T02:52:25.181Z,97253.81
2023-01-23T02:54:53.049Z,97250.53
2023-01-23T02:57:20.822Z,97259.53
2023-01-23T03:00:07.943Z,97250.19
2023-01-23T03:02:38.151Z,97263.81
2023-01-23T03:05:06.796Z,97253.19
2023-01-23T03:07:35.579Z,97259.53
2023-01-23T03:10:05.214Z,97248.66
2023-01-23T03:12:33.065Z,97256.38
2023-01-23T03:15:02.642Z,97260.44
2023-01-23T03:17:30.680Z,97257.97
2023-01-23T03:19:58.912Z,97261.44
2023-01-23T03:22:27.621Z,97265.75
2023-01-23T03:24:57.663Z,97272.06
2023-01-23T03:27:25.910Z,97280.63
2023-01-23T03:30:13.889Z,97288.16
2023-01-23T03:32:44.213Z,97290.81
2023-01-23T03:35:16.497Z,97289.63
2023-01-23T03:37:44.430Z,97301.22
2023-01-23T03:40:34.966Z,97295.50
2023-01-23T03:43:03.091Z,97285.31
2023-01-23T03:45:31.059Z,97294.28
2023-01-23T03:48:00.574Z,97292.47
2023-01-23T03:50:28.522Z,97283.22
2023-01-23T03:52:56.383Z,97285.06
2023-01-23T03:55:24.399Z,97277.13
2023-01-23T03:57:54.056Z,97280.22
2023-01-23T04:00:27.840Z,97287.44
2023-01-23T04:03:07.387Z,97278.53
2023-01-23T04:05:38.129Z,97287.09
2023-01-23T04:08:06.595Z,97286.09
2023-01-23T04:10:36.294Z,97292.44
2023-01-23T04:13:09.172Z,97280.63
2023-01-23T04:15:37.189Z,97282.69
2023-01-23T04:18:08.931Z,97281.69
2023-01-23T04:20:36.816Z,97272.75
2023-01-23T04:23:04.786Z,97276.63
2023-01-23T04:25:32.590Z,97276.63
2023-01-23T04:28:00.398Z,97282.75
2023-01-23T04:30:28.524Z,97276.63
2023-01-23T04:32:59.386Z,97278.84
2023-01-23T04:35:28.722Z,97282.91
2023-01-23T04:37:56.474Z,97292.06
2023-01-23T04:40:24.349Z,97292.88
2023-01-23T04:42:56.797Z,97299.22
2023-01-23T04:45:32.932Z,97301.06
2023-01-23T04:48:13.471Z,97305.31
2023-01-23T04:50:43.347Z,97300.66
2023-01-23T04:53:11.621Z,97308.78
2023-01-23T04:55:40.009Z,97321.41
2023-01-23T04:58:12.465Z,97307.09
2023-01-23T05:00:41.206Z,97311.38
2023-01-23T05:03:09.172Z,97317.66
2023-01-23T05:05:44.093Z,97318.06
2023-01-23T05:08:12.874Z,97313.97
2023-01-23T05:10:42.811Z,97311.28
2023-01-23T05:13:13.833Z,97314.34
2023-01-23T05:15:41.700Z,97316.16
2023-01-23T05:18:09.596Z,97315.97
2023-01-23T05:20:37.666Z,97303.31
2023-01-23T05:23:07.637Z,97308.00
2023-01-23T05:25:46.930Z,97310.25
2023-01-23T05:28:15.147Z,97318.22
2023-01-23T05:30:48.900Z,97316.97
2023-01-23T05:33:26.320Z,97323.69
2023-01-23T05:35:54.464Z,97322.06
2023-01-23T05:38:23.712Z,97331.47
2023-01-23T05:40:51.755Z,97320.88
2023-01-23T05:43:42.080Z,97332.50
2023-01-23T05:46:15.668Z,97328.19
2023-01-23T05:48:50.489Z,97321.44
2023-01-23T05:51:18.770Z,97326.56
2023-01-23T05:53:48.173Z,97322.66
2023-01-23T05:56:17.613Z,97320.63
2023-01-23T05:59:05.738Z,97324.91
2023-01-23T06:01:56.802Z,97332.22
2023-01-23T06:04:59.827Z,97336.09
2023-01-23T06:07:40.762Z,97337.09
2023-01-23T06:10:11.959Z,97339.75
2023-01-23T06:12:39.724Z,97347.50
2023-01-23T06:15:08.260Z,97344.25
2023-01-23T06:17:36.205Z,97350.97
2023-01-23T06:20:04.237Z,97348.91
2023-01-23T06:22:32.497Z,97363.38
2023-01-23T06:25:04.977Z,97362.34
2023-01-23T06:27:34.185Z,97363.56
2023-01-23T06:30:06.540Z,97356.66
2023-01-23T06:32:38.985Z,97362.53
2023-01-23T06:35:08.560Z,97360.50
2023-01-23T06:37:39.851Z,97366.84
2023-01-23T06:40:13.049Z,97369.28
2023-01-23T06:42:44.803Z,97363.75
2023-01-23T06:45:13.081Z,97376.38
2023-01-23T06:47:40.892Z,97356.59
2023-01-23T06:50:10.924Z,97363.50
2023-01-23T06:52:40.136Z,97360.06
2023-01-23T06:55:08.647Z,97370.25
2023-01-23T06:57:36.573Z,97371.25
2023-01-23T07:00:07.768Z,97370.63
2023-01-23T07:02:38.804Z,97367.53
2023-01-23T07:05:07.194Z,97362.47
2023-01-23T07:07:34.990Z,97360.00
2023-01-23T07:10:03.378Z,97362.84
2023-01-23T07:12:31.130Z,97364.31
2023-01-23T07:14:58.967Z,97360.22
2023-01-23T07:17:35.570Z,97363.88
2023-01-23T07:20:03.446Z,97365.06
2023-01-23T07:22:31.384Z,97365.50
2023-01-23T07:24:59.136Z,97368.72
2023-01-23T07:27:27.011Z,97376.31
2023-01-23T07:29:54.739Z,97371.59
2023-01-23T07:32:22.526Z,97354.63
2023-01-23T07:34:53.121Z,97365.22
2023-01-23T07:37:21.020Z,97357.84
2023-01-23T07:39:50.052Z,97356.63
2023-01-23T07:42:17.969Z,97361.88
2023-01-23T07:44:45.883Z,97353.97
2023-01-23T07:47:14.015Z,97369.88
2023-01-23T07:49:41.920Z,97352.50
2023-01-23T07:52:11.250Z,97373.31
2023-01-23T07:54:39.226Z,97369.41
2023-01-23T07:57:07.127Z,97378.03
2023-01-23T07:59:34.985Z,97386.16
2023-01-23T08:02:02.922Z,97385.75
2023-01-23T08:04:30.769Z,97393.31
2023-01-23T08:06:58.620Z,97383.91
2023-01-23T08:09:27.936Z,97390.03
2023-01-23T08:11:55.730Z,97378.94
2023-01-23T08:14:23.718Z,97382.00
2023-01-23T08:16:52.281Z,97360.50
2023-01-23T08:19:20.704Z,97377.03
2023-01-23T08:21:48.617Z,97375.16
2023-01-23T08:24:16.551Z,97388.03
2023-01-23T08:26:45.797Z,97376.75
2023-01-23T08:29:13.949Z,97384.16
2023-01-23T08:31:42.533Z,97378.59
2023-01-23T08:34:10.530Z,97370.97
2023-01-23T08:36:38.306Z,97376.09
2023-01-23T08:39:06.222Z,97388.69
2023-01-23T08:41:34.079Z,97385.56
2023-01-23T08:44:04.178Z,97386.97
2023-01-23T08:46:32.815Z,97392.72
2023-01-23T08:49:01.072Z,97390.81
2023-01-23T08:51:29.598Z,97398.16
2023-01-23T08:53:57.508Z,97377.09
2023-01-23T08:56:26.002Z,97378.88
2023-01-23T08:58:53.968Z,97370.75
2023-01-23T09:01:25.045Z,97380.13
2023-01-23T09:03:53.866Z,97381.97
2023-01-23T09:06:23.093Z,97383.28
2023-01-23T09:08:50.957Z,97388.00
2023-01-23T09:11:19.441Z,97389.34
2023-01-23T09:13:47.574Z,97388.00
2023-01-23T09:16:15.990Z,97391.25
2023-01-23T09:18:45.128Z,97393.06
2023-01-23T09:21:16.915Z,97389.03
2023-01-23T09:23:47.186Z,97392.66
2023-01-23T09:26:20.528Z,97396.06
2023-01-23T09:28:49.795Z,97398.72
2023-01-23T09:31:18.860Z,97400.00
2023-01-23T09:33:53.577Z,97399.34
2023-01-23T09:36:41.391Z,97412.25
2023-01-23T09:39:10.883Z,97407.91
2023-01-23T09:41:40.656Z,97403.22
2023-01-23T09:44:40.297Z,97404.69
2023-01-23T09:47:15.743Z,97413.22
2023-01-23T09:50:02.266Z,97415.06
2023-01-23T09:52:37.082Z,97413.38
2023-01-23T09:55:19.774Z,97408.88
2023-01-23T09:57:58.240Z,97404.00
2023-01-23T10:00:32.131Z,97401.13
2023-01-23T10:03:07.565Z,97395.28
2023-01-23T10:05:47.694Z,97386.13
2023-01-23T10:08:28.573Z,97381.41
2023-01-23T10:11:22.948Z,97380.97
2023-01-23T10:14:17.408Z,97378.25
2023-01-23T10:16:57.180Z,97376.63
2023-01-23T10:19:42.625Z,97379.66
2023-01-23T10:22:35.626Z,97370.66
2023-01-23T10:25:16.118Z,97386.75
2023-01-23T10:27:51.183Z,97381.66
2023-01-23T10:30:38.498Z,97368.00
2023-01-23T10:33:16.092Z,97371.84
2023-01-23T10:36:01.169Z,97375.09
2023-01-23T10:38:42.074Z,97368.28
2023-01-23T10:41:20.599Z,97339.09
2023-01-23T10:43:52.927Z,97335.09
2023-01-23T10:46:28.783Z,97340.22
2023-01-23T10:49:10.438Z,97332.75
2023-01-23T10:52:00.712Z,97342.56
2023-01-23T10:54:33.652Z,97342.41
2023-01-23T10:57:23.645Z,97338.50
2023-01-23T11:00:30.756Z,97342.25
2023-01-23T11:03:27.278Z,97338.41
2023-01-23T11:06:00.990Z,97343.44
2023-01-23T11:08:37.778Z,97344.06
2023-01-23T11:11:33.453Z,97346.09
2023-01-23T11:14:31.528Z,97338.41
2023-01-23T11:17:13.447Z,97331.19
2023-01-23T11:19:47.010Z,97324.97
2023-01-23T11:22:30.506Z,97325.44
2023-01-23T11:25:00.321Z,97316.97
2023-01-23T11:27:35.281Z,97307.13
2023-01-23T11:30:23.619Z,97305.16
2023-01-23T11:32:58.479Z,97296.84
2023-01-23T11:35:44.309Z,97298.56
2023-01-23T11:38:19.744Z,97289.66
2023-01-23T11:40:52.605Z,97294.50
2023-01-23T11:43:21.866Z,97294.06
2023-01-23T11:46:07.015Z,97281.56
2023-01-23T11:48:54.629Z,97281.94
2023-01-23T11:51:28.200Z,97271.28
2023-01-23T11:54:09.549Z,97274.31
2023-01-23T11:56:49.128Z,97269.00
2023-01-23T11:59:55.356Z,97271.41
2023-01-23T12:02:53.431Z,97265.44
2023-01-23T12:05:35.521Z,97266.97
2023-01-23T12:08:18.421Z,97264.88
2023-01-23T12:10:54.773Z,97270.69
2023-01-23T12:13:38.709Z,97257.13
2023-01-23T12:16:15.517Z,97255.41
2023-01-23T12:18:54.662Z,97253.78
2023-01-23T12:21:34.646Z,97257.25
2023-01-23T12:24:14.761Z,97264.34
2023-01-23T12:27:01.648Z,97255.66
2023-01-23T12:30:01.365Z,97255.53
2023-01-23T12:32:44.129Z,97256.94
2023-01-23T12:35:44.404Z,97264.06
2023-01-23T12:38:25.027Z,97256.56
2023-01-23T12:41:03.455Z,97244.75
2023-01-23T12:43:37.592Z,97239.91
2023-01-23T12:46:10.834Z,97244.31
2023-01-23T12:48:43.195Z,97236.09
2023-01-23T12:51:16.119Z,97230.41
2023-01-23T12:53:46.923Z,97234.09
2023-01-23T12:56:18.903Z,97240.72
2023-01-23T12:58:54.423Z,97241.41
2023-01-23T13:01:37.925Z,97239.53
2023-01-23T13:04:27.747Z,97242.91
2023-01-23T13:07:04.607Z,97238.19
2023-01-23T13:09:47.363Z,97234.69
2023-01-23T13:12:22.062Z,97237.72
2023-01-23T13:17:40.841Z,97232.41
2023-01-23T13:20:41.678Z,97232.53
2023-01-23T13:23:24.935Z,97228.38
2023-01-23T13:26:36.533Z,97232.03
2023-01-23T13:29:07.462Z,97231.72
2023-01-23T13:31:40.167Z,97229.97
2023-01-23T13:34:37.228Z,97230.91
2023-01-23T13:37:50.857Z,97223.28
2023-01-23T13:40:22.658Z,97223.97
2023-01-23T13:42:51.896Z,97212.84
2023-01-23T13:45:27.896Z,97205.22
2023-01-23T14:20:19.968Z,97202.31
2023-01-23T14:22:47.974Z,97202.06
2023-01-23T14:25:18.233Z,97207.41
2023-01-23T14:27:54.351Z,97203.09
2023-01-23T14:30:26.679Z,97206.22
2023-01-23T14:32:58.899Z,97204.00
2023-01-23T14:35:28.659Z,97203.56
2023-01-23T14:38:00.146Z,97212.81
2023-01-23T14:40:35.121Z,97214.78
2023-01-23T14:43:08.557Z,97212.59
2023-01-23T14:45:38.427Z,97214.47
2023-01-23T14:48:15.111Z,97221.66
2023-01-23T14:50:43.805Z,97213.75
2023-01-23T14:53:15.289Z,97214.09
2023-01-23T14:55:47.160Z,97213.88
2023-01-23T14:58:21.814Z,97217.59
2023-01-23T15:00:50.322Z,97218.16
2023-01-23T15:03:37.705Z,97222.56
2023-01-23T15:06:10.496Z,97221.28
2023-01-23T15:08:39.397Z,97220.13
2023-01-23T15:11:11.970Z,97216.66
2023-01-23T15:13:50.533Z,97217.34
2023-01-23T15:16:23.503Z,97217.69
2023-01-23T15:19:06.366Z,97215.84
2023-01-23T15:21:37.379Z,97217.69
2023-01-23T15:24:20.572Z,97217.81
2023-01-23T15:27:03.549Z,97223.72
2023-01-23T15:29:33.107Z,97232.63
2023-01-23T15:32:02.163Z,97235.44
2023-01-23T15:34:34.246Z,97231.28
2023-01-23T15:37:06.641Z,97239.38
2023-01-23T15:39:39.407Z,97239.94
2023-01-23T15:42:27.234Z,97241.69
2023-01-23T15:44:55.516Z,97238.66
2023-01-23T15:47:23.354Z,97235.44
2023-01-23T15:49:52.679Z,97239.72
2023-01-23T15:52:23.953Z,97234.16
2023-01-23T15:54:54.564Z,97229.38
2023-01-23T15:57:23.081Z,97235.19
2023-01-23T15:59:51.066Z,97233.34
2023-01-23T16:02:30.674Z,97230.09
2023-01-23T16:05:01.889Z,97246.22
2023-01-23T16:07:34.324Z,97233.81
2023-01-23T16:10:05.409Z,97232.53
2023-01-23T16:12:35.483Z,97230.78
2023-01-23T16:15:03.323Z,97224.88
2023-01-23T16:17:31.174Z,97228.34
2023-01-23T16:20:00.450Z,97237.06
2023-01-23T16:22:29.644Z,97233.59
2023-01-23T16:24:58.717Z,97238.78
2023-01-23T16:27:27.581Z,97237.75
2023-01-23T16:29:56.383Z,97245.66
2023-01-23T16:32:25.017Z,97237.41
2023-01-23T16:34:53.088Z,97254.56
2023-01-23T16:37:22.443Z,97254.78
2023-01-23T16:40:15.790Z,97251.53
2023-01-23T16:42:58.820Z,97251.53
2023-01-23T16:45:30.777Z,97250.28
2023-01-23T16:47:59.327Z,97239.63
2023-01-23T16:50:41.159Z,97241.59
2023-01-23T16:53:24.353Z,97252.47
2023-01-23T16:55:52.620Z,97262.56
2023-01-23T16:58:22.630Z,97257.59
2023-01-23T17:00:51.898Z,97253.63
2023-01-23T17:03:24.247Z,97261.28
2023-01-23T17:05:52.116Z,97265.44
2023-01-23T17:08:23.182Z,97263.94
2023-01-23T17:10:53.532Z,97255.72
2023-01-23T17:14:12.841Z,97262.22
2023-01-23T17:16:40.899Z,97261.97
2023-01-23T17:19:17.016Z,97262.69
2023-01-23T17:21:45.239Z,97273.69
2023-01-23T17:24:17.944Z,97276.34
2023-01-23T17:26:46.023Z,97274.38
2023-01-23T17:29:15.172Z,97280.75
2023-01-23T17:31:43.558Z,97274.59
2023-01-23T17:34:18.068Z,97268.72
2023-01-23T17:36:46.043Z,97281.22
2023-01-23T17:39:14.193Z,97283.91
2023-01-23T17:41:43.485Z,97284.09
2023-01-23T17:44:11.405Z,97287.94
2023-01-23T17:46:40.088Z,97291.91
2023-01-23T17:49:29.209Z,97299.09
2023-01-23T17:51:58.963Z,97305.59
2023-01-23T17:54:27.532Z,97300.00
2023-01-23T17:56:56.916Z,97302.22
2023-01-23T17:59:25.952Z,97307.88
2023-01-23T18:01:53.959Z,97303.13
2023-01-23T18:04:23.577Z,97304.88
2023-01-23T18:06:52.457Z,97312.41
2023-01-23T18:09:21.274Z,97309.63
2023-01-23T18:11:52.425Z,97307.66
2023-01-23T18:14:43.623Z,97322.50
2023-01-23T18:17:20.723Z,97318.78
2023-01-23T18:19:51.492Z,97306.97
2023-01-23T18:22:19.760Z,97309.03
2023-01-23T18:24:48.066Z,97313.91
2023-01-23T18:27:24.277Z,97319.72
2023-01-23T18:30:04.608Z,97319.38
2023-01-23T18:32:58.166Z,97310.22
2023-01-23T18:35:35.601Z,97317.50
2023-01-23T18:38:12.436Z,97317.50
2023-01-23T18:40:49.489Z,97330.97
2023-01-23T18:43:33.959Z,97321.22
2023-01-23T18:46:03.889Z,97318.34
2023-01-23T18:48:32.330Z,97319.03
2023-01-23T18:51:09.526Z,97320.63
2023-01-23T18:53:46.882Z,97326.22
2023-01-23T18:56:23.601Z,97328.41
2023-01-23T18:59:11.782Z,97318.66
2023-01-23T19:01:52.100Z,97316.00
2023-01-23T19:04:26.019Z,97326.06
2023-01-23T19:06:54.570Z,97309.94
2023-01-23T19:09:22.926Z,97314.59
2023-01-23T19:12:02.933Z,97324.56
2023-01-23T19:14:47.839Z,97325.72
2023-01-23T19:17:26.900Z,97328.41
2023-01-23T19:20:02.465Z,97332.91
2023-01-23T19:22:41.930Z,97336.50
2023-01-23T19:25:17.923Z,97352.50
2023-01-23T19:27:52.422Z,97346.13
2023-01-23T19:30:23.800Z,97347.97
2023-01-23T19:32:53.315Z,97353.41
2023-01-23T19:35:22.422Z,97359.56
2023-01-23T19:37:50.390Z,97357.34
2023-01-23T19:40:18.931Z,97355.50
2023-01-23T19:42:58.688Z,97346.38
2023-01-23T19:45:33.864Z,97347.25
2023-01-23T19:48:03.159Z,97344.25
2023-01-23T19:50:31.097Z,97345.53
2023-01-23T19:53:00.192Z,97346.78
2023-01-23T19:55:30.275Z,97349.81
2023-01-23T19:57:58.775Z,97356.28
2023-01-23T20:00:27.828Z,97362.63
2023-01-23T20:02:56.017Z,97369.00
2023-01-23T20:05:26.051Z,97372.41
2023-01-23T20:07:54.869Z,97378.22
2023-01-23T20:10:23.741Z,97381.78
2023-01-23T20:12:54.154Z,97382.59
2023-01-23T20:15:24.189Z,97391.88
2023-01-23T20:17:53.057Z,97382.47
2023-01-23T20:20:21.641Z,97383.97
2023-01-23T20:22:50.980Z,97372.03
2023-01-23T20:25:19.386Z,97384.75
2023-01-23T20:27:47.447Z,97376.94
2023-01-23T20:30:17.574Z,97380.41
2023-01-23T20:32:45.581Z,97387.59
2023-01-23T20:35:13.516Z,97402.03
2023-01-23T20:37:41.479Z,97399.38
2023-01-23T20:40:12.527Z,97384.88
2023-01-23T20:42:41.040Z,97395.97
2023-01-23T20:45:09.951Z,97399.00
2023-01-23T20:47:38.706Z,97393.81
2023-01-23T20:50:07.422Z,97382.47
2023-01-23T20:52:52.694Z,97390.59
2023-01-23T20:55:22.221Z,97388.03
2023-01-23T20:58:07.449Z,97396.16
2023-01-23T21:00:35.332Z,97394.75
2023-01-23T21:03:03.257Z,97399.28
2023-01-23T21:05:31.129Z,97399.19
2023-01-23T21:07:58.971Z,97390.03
2023-01-23T21:10:28.308Z,97400.91
2023-01-23T21:12:56.361Z,97393.59
2023-01-23T21:15:24.196Z,97406.19
2023-01-23T21:17:52.035Z,97393.13
2023-01-23T21:20:20.092Z,97397.19
2023-01-23T21:22:48.116Z,97391.06
2023-01-23T21:25:16.958Z,97387.22
2023-01-23T21:27:46.111Z,97403.78
2023-01-23T21:30:14.534Z,97393.94
2023-01-23T21:32:42.589Z,97390.59
2023-01-23T21:35:11.754Z,97391.06
2023-01-23T21:37:39.904Z,97396.84
2023-01-23T21:40:09.535Z,97399.06
2023-01-23T21:42:37.414Z,97393.94
2023-01-23T21:45:11.125Z,97395.59
2023-01-23T21:47:38.928Z,97411.34
2023-01-23T21:50:07.695Z,97411.78
2023-01-23T21:52:35.643Z,97407.50
2023-01-23T21:55:03.728Z,97416.16
2023-01-23T21:57:31.636Z,97421.75
2023-01-23T22:00:16.936Z,97414.56
2023-01-23T22:02:46.193Z,97416.03
2023-01-23T22:05:14.165Z,97412.94
2023-01-23T22:07:42.125Z,97405.75
2023-01-23T22:10:11.066Z,97403.09
2023-01-23T22:12:38.934Z,97410.94
2023-01-23T22:15:08.086Z,97399.13
2023-01-23T22:17:36.032Z,97413.75
2023-01-23T22:20:06.632Z,97420.25
2023-01-23T22:22:34.482Z,97417.78
2023-01-23T22:25:02.476Z,97423.84
2023-01-23T22:27:30.586Z,97424.66
2023-01-23T22:29:58.424Z,97418.72
2023-01-23T22:32:26.406Z,97429.50
2023-01-23T22:34:54.536Z,97435.19
2023-01-23T22:37:23.723Z,97432.72
2023-01-23T22:39:51.603Z,97432.28
2023-01-23T22:42:20.974Z,97429.38
2023-01-23T22:44:48.855Z,97425.34
2023-01-23T22:47:16.668Z,97431.94
2023-01-23T22:49:44.621Z,97431.34
2023-01-23T22:52:12.741Z,97430.44
2023-01-23T22:54:41.977Z,97425.34
2023-01-23T22:57:09.794Z,97409.72
2023-01-23T22:59:37.804Z,97411.91
2023-01-23T23:04:54.973Z,97415.25
2023-01-23T23:07:22.709Z,97415.50
2023-01-23T23:09:51.807Z,97413.88
2023-01-23T23:12:19.606Z,97421.88
2023-01-23T23:14:47.601Z,97423.34
2023-01-23T23:17:15.563Z,97420.81
2023-01-23T23:19:43.300Z,97419.78
2023-01-23T23:22:11.298Z,97419.06
2023-01-23T23:24:39.174Z,97422.91
2023-01-23T23:27:08.338Z,97426.59
2023-01-23T23:29:36.105Z,97423.63
2023-01-23T23:32:04.063Z,97433.47
2023-01-23T23:34:31.882Z,97420.47
2023-01-23T23:36:59.631Z,97420.81
2023-01-23T23:39:27.387Z,97424.53
2023-01-23T23:41:55.128Z,97417.59
2023-01-23T23:44:24.479Z,97419.66
2023-01-23T23:46:52.322Z,97425.72
2023-01-23T23:49:20.338Z,97423.63
2023-01-23T23:51:48.115Z,97419.91
2023-01-23T23:54:16.141Z,97432.66
2023-01-23T23:56:43.971Z,97424.91
2023-01-23T23:59:15.636Z,97429.38
